sensor_id;sensor_type;location;lat;lon;timestamp;pressure;altitude;pressure_sealevel;temperature;humidity
4705;BME280;2366;51.332;6.610;2023-03-15T00:01:05;101040.88;;;7.59;60.05
4705;BME280;2366;51.332;6.610;2023-03-15T00:03:31;101039.88;;;7.62;60.63
4705;BME280;2366;51.332;6.610;2023-03-15T00:06:01;101037.91;;;7.67;61.20
4705;BME280;2366;51.332;6.610;2023-03-15T00:08:29;101046.19;;;7.78;61.84
4705;BME280;2366;51.332;6.610;2023-03-15T00:10:57;101046.97;;;7.80;62.07
4705;BME280;2366;51.332;6.610;2023-03-15T00:13:23;101056.03;;;7.75;62.18
4705;BME280;2366;51.332;6.610;2023-03-15T00:15:50;101062.78;;;7.61;63.21
4705;BME280;2366;51.332;6.610;2023-03-15T00:18:18;101065.53;;;7.58;63.95
4705;BME280;2366;51.332;6.610;2023-03-15T00:20:44;101064.84;;;7.55;64.55
4705;BME280;2366;51.332;6.610;2023-03-15T00:23:11;101072.72;;;7.34;65.23
4705;BME280;2366;51.332;6.610;2023-03-15T00:25:37;101075.22;;;7.17;65.54
4705;BME280;2366;51.332;6.610;2023-03-15T00:28:02;101080.88;;;7.08;65.83
4705;BME280;2366;51.332;6.610;2023-03-15T00:30:28;101078.88;;;6.92;66.60
4705;BME280;2366;51.332;6.610;2023-03-15T00:32:53;101075.84;;;6.79;67.26
4705;BME280;2366;51.332;6.610;2023-03-15T00:35:20;101083.25;;;6.70;67.06
4705;BME280;2366;51.332;6.610;2023-03-15T00:37:45;101071.00;;;6.69;67.94
4705;BME280;2366;51.332;6.610;2023-03-15T00:40:12;101084.97;;;6.71;68.13
4705;BME280;2366;51.332;6.610;2023-03-15T00:42:38;101080.38;;;6.76;67.83
4705;BME280;2366;51.332;6.610;2023-03-15T00:45:04;101081.88;;;6.83;68.39
4705;BME280;2366;51.332;6.610;2023-03-15T00:47:30;101092.41;;;6.83;68.27
4705;BME280;2366;51.332;6.610;2023-03-15T00:49:55;101088.84;;;6.84;68.34
4705;BME280;2366;51.332;6.610;2023-03-15T00:52:21;101085.34;;;6.84;68.50
4705;BME280;2366;51.332;6.610;2023-03-15T00:54:54;101084.38;;;6.86;68.77
4705;BME280;2366;51.332;6.610;2023-03-15T00:57:20;101086.97;;;6.88;68.85
4705;BME280;2366;51.332;6.610;2023-03-15T00:59:45;101092.09;;;6.91;69.01
4705;BME280;2366;51.332;6.610;2023-03-15T01:02:11;101095.72;;;6.88;68.82
4705;BME280;2366;51.332;6.610;2023-03-15T01:04:36;101086.97;;;6.88;68.85
4705;BME280;2366;51.332;6.610;2023-03-15T01:07:02;101095.47;;;6.94;69.07
4705;BME280;2366;51.332;6.610;2023-03-15T01:09:27;101094.59;;;6.94;69.16
4705;BME280;2366;51.332;6.610;2023-03-15T01:11:54;101090.44;;;6.88;68.78
4705;BME280;2366;51.332;6.610;2023-03-15T01:14:20;101095.59;;;6.91;68.84
4705;BME280;2366;51.332;6.610;2023-03-15T01:16:45;101104.09;;;6.98;69.11
4705;BME280;2366;51.332;6.610;2023-03-15T01:19:11;101096.47;;;6.92;68.74
4705;BME280;2366;51.332;6.610;2023-03-15T01:21:37;101099.63;;;7.00;68.95
4705;BME280;2366;51.332;6.610;2023-03-15T01:24:02;101093.41;;;7.03;69.54
4705;BME280;2366;51.332;6.610;2023-03-15T01:26:27;101096.69;;;7.08;69.18
4705;BME280;2366;51.332;6.610;2023-03-15T01:28:53;101116.06;;;7.07;69.44
4705;BME280;2366;51.332;6.610;2023-03-15T01:31:25;101104.06;;;6.99;68.90
4705;BME280;2366;51.332;6.610;2023-03-15T01:33:51;101110.41;;;6.72;69.46
4705;BME280;2366;51.332;6.610;2023-03-15T01:36:17;101124.00;;;6.37;71.40
4705;BME280;2366;51.332;6.610;2023-03-15T01:38:42;101111.78;;;6.11;71.21
4705;BME280;2366;51.332;6.610;2023-03-15T01:41:13;101109.16;;;6.11;71.46
4705;BME280;2366;51.332;6.610;2023-03-15T01:43:39;101112.50;;;6.16;71.51
4705;BME280;2366;51.332;6.610;2023-03-15T01:46:25;101114.53;;;6.33;71.23
4705;BME280;2366;51.332;6.610;2023-03-15T01:51:38;101093.41;;;6.57;71.43
4705;BME280;2366;51.332;6.610;2023-03-15T01:54:07;101086.47;;;6.54;70.71
4705;BME280;2366;51.332;6.610;2023-03-15T01:56:34;101087.66;;;6.47;71.05
4705;BME280;2366;51.332;6.610;2023-03-15T01:59:02;101097.63;;;6.39;70.33
4705;BME280;2366;51.332;6.610;2023-03-15T02:01:29;101094.53;;;6.28;70.69
4705;BME280;2366;51.332;6.610;2023-03-15T02:04:03;101099.03;;;6.24;71.30
4705;BME280;2366;51.332;6.610;2023-03-15T02:06:33;101093.94;;;6.20;71.60
4705;BME280;2366;51.332;6.610;2023-03-15T02:09:03;101106.22;;;6.21;71.92
4705;BME280;2366;51.332;6.610;2023-03-15T02:11:29;101107.66;;;6.29;72.20
4705;BME280;2366;51.332;6.610;2023-03-15T02:13:56;101099.25;;;6.42;72.38
4705;BME280;2366;51.332;6.610;2023-03-15T02:16:23;101105.41;;;6.42;72.24
4705;BME280;2366;51.332;6.610;2023-03-15T02:18:49;101102.88;;;6.39;72.16
4705;BME280;2366;51.332;6.610;2023-03-15T02:24:23;101111.75;;;6.60;72.82
4705;BME280;2366;51.332;6.610;2023-03-15T02:26:55;101113.16;;;6.69;73.33
4705;BME280;2366;51.332;6.610;2023-03-15T02:29:22;101118.66;;;6.86;73.26
4705;BME280;2366;51.332;6.610;2023-03-15T02:31:49;101112.91;;;6.98;73.56
4705;BME280;2366;51.332;6.610;2023-03-15T02:34:15;101114.41;;;7.04;73.68
4705;BME280;2366;51.332;6.610;2023-03-15T02:36:40;101111.59;;;7.09;73.16
4705;BME280;2366;51.332;6.610;2023-03-15T02:39:14;101116.63;;;7.15;73.39
4705;BME280;2366;51.332;6.610;2023-03-15T02:41:42;101116.19;;;7.26;73.72
4705;BME280;2366;51.332;6.610;2023-03-15T02:44:13;101120.34;;;7.31;73.39
4705;BME280;2366;51.332;6.610;2023-03-15T02:46:41;101113.22;;;7.33;72.90
4705;BME280;2366;51.332;6.610;2023-03-15T02:49:08;101129.06;;;7.33;73.55
4705;BME280;2366;51.332;6.610;2023-03-15T02:51:35;101118.50;;;7.33;73.17
4705;BME280;2366;51.332;6.610;2023-03-15T02:54:00;101127.22;;;7.35;73.05
4705;BME280;2366;51.332;6.610;2023-03-15T02:56:25;101125.53;;;7.33;72.66
4705;BME280;2366;51.332;6.610;2023-03-15T02:58:51;101122.31;;;7.26;72.94
4705;BME280;2366;51.332;6.610;2023-03-15T03:01:17;101132.75;;;7.29;72.34
4705;BME280;2366;51.332;6.610;2023-03-15T03:03:44;101142.50;;;7.27;72.68
4705;BME280;2366;51.332;6.610;2023-03-15T03:06:12;101147.16;;;7.20;72.77
4705;BME280;2366;51.332;6.610;2023-03-15T03:08:37;101152.06;;;7.08;72.77
4705;BME280;2366;51.332;6.610;2023-03-15T03:11:04;101154.69;;;7.08;72.24
4705;BME280;2366;51.332;6.610;2023-03-15T03:13:29;101160.44;;;6.95;72.18
4705;BME280;2366;51.332;6.610;2023-03-15T03:15:55;101160.81;;;6.86;72.73
4705;BME280;2366;51.332;6.610;2023-03-15T03:18:26;101165.34;;;6.83;72.72
4705;BME280;2366;51.332;6.610;2023-03-15T03:20:57;101177.31;;;6.91;72.54
4705;BME280;2366;51.332;6.610;2023-03-15T03:23:24;101183.28;;;6.96;72.60
4705;BME280;2366;51.332;6.610;2023-03-15T03:25:54;101188.31;;;7.03;72.27
4705;BME280;2366;51.332;6.610;2023-03-15T03:28:21;101187.34;;;7.05;72.33
4705;BME280;2366;51.332;6.610;2023-03-15T03:30:48;101193.47;;;7.06;72.54
4705;BME280;2366;51.332;6.610;2023-03-15T03:33:14;101196.94;;;7.06;72.37
4705;BME280;2366;51.332;6.610;2023-03-15T03:35:40;101201.72;;;6.96;71.73
4705;BME280;2366;51.332;6.610;2023-03-15T03:38:06;101209.66;;;6.96;72.18
4705;BME280;2366;51.332;6.610;2023-03-15T03:40:31;101212.69;;;6.86;71.92
4705;BME280;2366;51.332;6.610;2023-03-15T03:42:57;101218.94;;;6.83;72.44
4705;BME280;2366;51.332;6.610;2023-03-15T03:45:22;101219.47;;;6.68;72.13
4705;BME280;2366;51.332;6.610;2023-03-15T03:47:48;101223.03;;;6.67;72.87
4705;BME280;2366;51.332;6.610;2023-03-15T03:50:15;101230.81;;;6.70;72.65
4705;BME280;2366;51.332;6.610;2023-03-15T03:52:42;101222.34;;;6.38;71.80
4705;BME280;2366;51.332;6.610;2023-03-15T03:55:10;101229.53;;;6.33;72.79
4705;BME280;2366;51.332;6.610;2023-03-15T03:57:39;101230.63;;;6.27;73.04
4705;BME280;2366;51.332;6.610;2023-03-15T04:00:06;101232.84;;;6.13;72.47
4705;BME280;2366;51.332;6.610;2023-03-15T04:02:31;101238.91;;;6.16;72.43
4705;BME280;2366;51.332;6.610;2023-03-15T04:04:58;101244.38;;;6.10;72.40
4705;BME280;2366;51.332;6.610;2023-03-15T04:07:24;101244.25;;;6.13;72.92
4705;BME280;2366;51.332;6.610;2023-03-15T04:09:49;101235.78;;;6.05;72.13
4705;BME280;2366;51.332;6.610;2023-03-15T04:12:14;101247.69;;;6.15;73.42
4705;BME280;2366;51.332;6.610;2023-03-15T04:14:40;101257.84;;;6.26;73.11
4705;BME280;2366;51.332;6.610;2023-03-15T04:17:05;101259.22;;;6.38;72.75
4705;BME280;2366;51.332;6.610;2023-03-15T04:19:33;101255.31;;;6.48;72.73
4705;BME280;2366;51.332;6.610;2023-03-15T04:21:58;101263.91;;;6.55;72.59
4705;BME280;2366;51.332;6.610;2023-03-15T04:24:24;101266.34;;;6.60;72.43
4705;BME280;2366;51.332;6.610;2023-03-15T04:26:49;101265.44;;;6.61;72.92
4705;BME280;2366;51.332;6.610;2023-03-15T04:29:14;101256.53;;;6.63;72.55
4705;BME280;2366;51.332;6.610;2023-03-15T04:31:40;101254.66;;;6.67;72.32
4705;BME280;2366;51.332;6.610;2023-03-15T04:34:07;101252.94;;;6.66;72.77
4705;BME280;2366;51.332;6.610;2023-03-15T04:36:33;101265.09;;;6.70;72.50
4705;BME280;2366;51.332;6.610;2023-03-15T04:38:58;101268.53;;;6.72;72.57
4705;BME280;2366;51.332;6.610;2023-03-15T04:41:32;101267.69;;;6.71;73.17
4705;BME280;2366;51.332;6.610;2023-03-15T04:43:59;101261.66;;;6.68;72.91
4705;BME280;2366;51.332;6.610;2023-03-15T04:46:24;101260.16;;;6.61;72.47
4705;BME280;2366;51.332;6.610;2023-03-15T04:48:50;101271.78;;;6.55;73.01
4705;BME280;2366;51.332;6.610;2023-03-15T04:51:15;101269.84;;;6.60;73.10
4705;BME280;2366;51.332;6.610;2023-03-15T04:53:41;101280.00;;;6.71;73.65
4705;BME280;2366;51.332;6.610;2023-03-15T04:56:06;101284.13;;;6.78;73.31
4705;BME280;2366;51.332;6.610;2023-03-15T04:58:32;101291.78;;;6.86;73.60
4705;BME280;2366;51.332;6.610;2023-03-15T05:00:57;101292.41;;;6.92;73.71
4705;BME280;2366;51.332;6.610;2023-03-15T05:03:22;101295.94;;;6.91;73.46
4705;BME280;2366;51.332;6.610;2023-03-15T05:05:48;101305.84;;;6.85;73.33
4705;BME280;2366;51.332;6.610;2023-03-15T05:08:13;101299.22;;;6.74;73.11
4705;BME280;2366;51.332;6.610;2023-03-15T05:10:39;101303.59;;;6.74;73.82
4705;BME280;2366;51.332;6.610;2023-03-15T05:13:04;101295.06;;;6.67;73.36
4705;BME280;2366;51.332;6.610;2023-03-15T05:15:30;101308.94;;;6.72;73.75
4705;BME280;2366;51.332;6.610;2023-03-15T05:17:55;101308.06;;;6.72;73.96
4705;BME280;2366;51.332;6.610;2023-03-15T05:20:21;101322.81;;;6.77;73.69
4705;BME280;2366;51.332;6.610;2023-03-15T05:22:47;101320.03;;;6.81;73.44
4705;BME280;2366;51.332;6.610;2023-03-15T05:25:12;101323.66;;;6.78;73.76
4705;BME280;2366;51.332;6.610;2023-03-15T05:27:38;101325.13;;;6.62;73.14
4705;BME280;2366;51.332;6.610;2023-03-15T05:30:04;101330.16;;;6.68;74.12
4705;BME280;2366;51.332;6.610;2023-03-15T05:32:30;101336.31;;;6.68;73.86
4705;BME280;2366;51.332;6.610;2023-03-15T05:35:02;101341.47;;;6.71;73.88
4705;BME280;2366;51.332;6.610;2023-03-15T05:37:28;101352.78;;;6.75;73.63
4705;BME280;2366;51.332;6.610;2023-03-15T05:39:54;101355.28;;;6.78;73.91
4705;BME280;2366;51.332;6.610;2023-03-15T05:42:20;101347.44;;;6.76;73.94
4705;BME280;2366;51.332;6.610;2023-03-15T05:44:53;101352.00;;;6.71;73.67
4705;BME280;2366;51.332;6.610;2023-03-15T05:47:19;101358.13;;;6.72;73.35
4705;BME280;2366;51.332;6.610;2023-03-15T05:49:45;101365.84;;;6.78;73.60
4705;BME280;2366;51.332;6.610;2023-03-15T05:52:10;101366.47;;;6.85;73.64
4705;BME280;2366;51.332;6.610;2023-03-15T05:54:36;101362.94;;;6.86;73.78
4705;BME280;2366;51.332;6.610;2023-03-15T05:57:01;101367.75;;;6.74;73.34
4705;BME280;2366;51.332;6.610;2023-03-15T05:59:26;101374.50;;;6.82;73.26
4705;BME280;2366;51.332;6.610;2023-03-15T06:01:52;101376.75;;;6.67;74.01
4705;BME280;2366;51.332;6.610;2023-03-15T06:04:17;101383.69;;;6.70;73.68
4705;BME280;2366;51.332;6.610;2023-03-15T06:06:43;101384.44;;;6.73;73.87
4705;BME280;2366;51.332;6.610;2023-03-15T06:09:08;101390.47;;;6.77;73.04
4705;BME280;2366;51.332;6.610;2023-03-15T06:11:33;101385.84;;;6.84;73.62
4705;BME280;2366;51.332;6.610;2023-03-15T06:13:59;101391.81;;;6.89;73.30
4705;BME280;2366;51.332;6.610;2023-03-15T06:16:24;101399.78;;;6.87;73.44
4705;BME280;2366;51.332;6.610;2023-03-15T06:18:49;101399.56;;;6.93;72.95
4705;BME280;2366;51.332;6.610;2023-03-15T06:21:15;101402.28;;;6.92;73.67
4705;BME280;2366;51.332;6.610;2023-03-15T06:23:41;101407.91;;;7.06;73.50
4705;BME280;2366;51.332;6.610;2023-03-15T06:26:06;101415.56;;;7.14;73.05
4705;BME280;2366;51.332;6.610;2023-03-15T06:28:31;101414.41;;;7.21;72.61
4705;BME280;2366;51.332;6.610;2023-03-15T06:30:57;101415.84;;;7.30;72.72
4705;BME280;2366;51.332;6.610;2023-03-15T06:33:22;101415.59;;;7.37;72.86
4705;BME280;2366;51.332;6.610;2023-03-15T06:35:48;101420.84;;;7.37;72.29
4705;BME280;2366;51.332;6.610;2023-03-15T06:38:14;101418.03;;;7.42;72.50
4705;BME280;2366;51.332;6.610;2023-03-15T06:40:39;101425.75;;;7.48;72.84
4705;BME280;2366;51.332;6.610;2023-03-15T06:43:05;101425.56;;;7.53;71.88
4705;BME280;2366;51.332;6.610;2023-03-15T06:45:31;101435.00;;;7.58;72.70
4705;BME280;2366;51.332;6.610;2023-03-15T06:47:57;101441.06;;;7.62;72.31
4705;BME280;2366;51.332;6.610;2023-03-15T06:50:22;101448.16;;;7.60;71.87
4705;BME280;2366;51.332;6.610;2023-03-15T06:52:48;101451.47;;;7.65;71.55
4705;BME280;2366;51.332;6.610;2023-03-15T06:55:13;101462.66;;;7.72;70.85
4705;BME280;2366;51.332;6.610;2023-03-15T06:57:42;101470.44;;;7.76;72.01
4705;BME280;2366;51.332;6.610;2023-03-15T07:00:09;101472.59;;;7.89;71.20
4705;BME280;2366;51.332;6.610;2023-03-15T07:02:35;101476.63;;;7.99;71.30
4705;BME280;2366;51.332;6.610;2023-03-15T07:05:05;101478.22;;;8.03;70.98
4705;BME280;2366;51.332;6.610;2023-03-15T07:07:30;101480.06;;;8.01;70.88
4705;BME280;2366;51.332;6.610;2023-03-15T07:09:56;101486.44;;;8.17;70.01
4705;BME280;2366;51.332;6.610;2023-03-15T07:12:21;101489.16;;;8.16;69.45
4705;BME280;2366;51.332;6.610;2023-03-15T07:14:47;101495.78;;;8.26;70.15
4705;BME280;2366;51.332;6.610;2023-03-15T07:17:13;101503.03;;;8.45;69.81
4705;BME280;2366;51.332;6.610;2023-03-15T07:19:39;101503.59;;;8.53;69.41
4705;BME280;2366;51.332;6.610;2023-03-15T07:22:04;101511.28;;;8.59;69.38
4705;BME280;2366;51.332;6.610;2023-03-15T07:24:30;101514.19;;;8.53;67.38
4705;BME280;2366;51.332;6.610;2023-03-15T07:26:55;101523.38;;;8.64;68.61
4705;BME280;2366;51.332;6.610;2023-03-15T07:29:22;101522.41;;;8.89;68.07
4705;BME280;2366;51.332;6.610;2023-03-15T07:31:48;101520.03;;;9.03;67.85
4705;BME280;2366;51.332;6.610;2023-03-15T07:34:13;101524.66;;;9.19;67.17
4705;BME280;2366;51.332;6.610;2023-03-15T07:36:39;101523.41;;;9.28;67.14
4705;BME280;2366;51.332;6.610;2023-03-15T07:39:04;101529.84;;;9.22;66.13
4705;BME280;2366;51.332;6.610;2023-03-15T07:41:29;101531.69;;;9.20;66.36
4705;BME280;2366;51.332;6.610;2023-03-15T07:43:55;101543.56;;;9.30;66.63
4705;BME280;2366;51.332;6.610;2023-03-15T07:46:21;101546.09;;;9.54;66.04
4705;BME280;2366;51.332;6.610;2023-03-15T07:48:47;101545.78;;;10.20;59.64
4705;BME280;2366;51.332;6.610;2023-03-15T07:51:12;101556.72;;;12.56;55.83
4705;BME280;2366;51.332;6.610;2023-03-15T07:53:37;101553.13;;;11.59;54.37
4705;BME280;2366;51.332;6.610;2023-03-15T07:56:03;101565.50;;;10.52;56.86
4705;BME280;2366;51.332;6.610;2023-03-15T07:58:29;101571.50;;;9.78;60.61
4705;BME280;2366;51.332;6.610;2023-03-15T08:00:55;101565.94;;;9.64;60.73
4705;BME280;2366;51.332;6.610;2023-03-15T08:03:21;101575.84;;;11.47;56.53
4705;BME280;2366;51.332;6.610;2023-03-15T08:05:48;101576.75;;;10.57;56.77
4705;BME280;2366;51.332;6.610;2023-03-15T08:08:13;101586.88;;;9.70;58.61
4705;BME280;2366;51.332;6.610;2023-03-15T08:10:39;101590.03;;;9.58;61.35
4705;BME280;2366;51.332;6.610;2023-03-15T08:13:04;101599.69;;;9.79;61.27
4705;BME280;2366;51.332;6.610;2023-03-15T08:15:29;101605.00;;;9.79;59.59
4705;BME280;2366;51.332;6.610;2023-03-15T08:17:55;101609.31;;;9.19;62.58
4705;BME280;2366;51.332;6.610;2023-03-15T08:20:20;101605.94;;;9.58;62.32
4705;BME280;2366;51.332;6.610;2023-03-15T08:22:47;101611.56;;;9.71;60.41
4705;BME280;2366;51.332;6.610;2023-03-15T08:25:15;101610.69;;;9.70;61.49
4705;BME280;2366;51.332;6.610;2023-03-15T08:27:41;101612.03;;;10.20;60.84
4705;BME280;2366;51.332;6.610;2023-03-15T08:30:10;101614.22;;;12.43;58.06
4705;BME280;2366;51.332;6.610;2023-03-15T08:32:37;101628.25;;;17.51;48.07
4705;BME280;2366;51.332;6.610;2023-03-15T08:35:04;101628.81;;;19.35;39.61
4705;BME280;2366;51.332;6.610;2023-03-15T08:37:29;101624.88;;;19.72;37.50
4705;BME280;2366;51.332;6.610;2023-03-15T08:39:55;101621.81;;;19.65;37.48
4705;BME280;2366;51.332;6.610;2023-03-15T08:42:29;101632.63;;;19.33;36.77
4705;BME280;2366;51.332;6.610;2023-03-15T08:44:54;101633.16;;;18.38;38.24
4705;BME280;2366;51.332;6.610;2023-03-15T08:47:24;101633.94;;;17.35;40.38
4705;BME280;2366;51.332;6.610;2023-03-15T08:49:49;101634.59;;;18.87;37.46
4705;BME280;2366;51.332;6.610;2023-03-15T08:52:17;101637.88;;;19.97;34.42
4705;BME280;2366;51.332;6.610;2023-03-15T08:54:43;101641.34;;;18.59;37.74
4705;BME280;2366;51.332;6.610;2023-03-15T08:57:08;101640.22;;;16.49;41.11
4705;BME280;2366;51.332;6.610;2023-03-15T08:59:34;101647.34;;;19.06;40.15
4705;BME280;2366;51.332;6.610;2023-03-15T09:02:00;101645.81;;;21.20;35.75
4705;BME280;2366;51.332;6.610;2023-03-15T09:04:25;101653.63;;;22.39;32.10
4705;BME280;2366;51.332;6.610;2023-03-15T09:06:50;101663.22;;;22.96;30.49
4705;BME280;2366;51.332;6.610;2023-03-15T09:09:16;101658.31;;;21.21;30.90
4705;BME280;2366;51.332;6.610;2023-03-15T09:11:41;101661.13;;;21.88;31.22
4705;BME280;2366;51.332;6.610;2023-03-15T09:14:07;101656.22;;;22.21;30.72
4705;BME280;2366;51.332;6.610;2023-03-15T09:16:32;101670.09;;;23.36;30.62
4705;BME280;2366;51.332;6.610;2023-03-15T09:18:58;101667.53;;;21.87;31.32
4705;BME280;2366;51.332;6.610;2023-03-15T09:21:23;101663.69;;;19.14;34.52
4705;BME280;2366;51.332;6.610;2023-03-15T09:23:49;101664.00;;;16.02;39.30
4705;BME280;2366;51.332;6.610;2023-03-15T09:26:14;101670.19;;;15.77;41.69
4705;BME280;2366;51.332;6.610;2023-03-15T09:28:40;101664.69;;;17.18;39.01
4705;BME280;2366;51.332;6.610;2023-03-15T09:31:05;101672.66;;;16.57;39.55
4705;BME280;2366;51.332;6.610;2023-03-15T09:33:31;101666.19;;;15.30;41.43
4705;BME280;2366;51.332;6.610;2023-03-15T09:35:57;101672.94;;;14.24;42.26
4705;BME280;2366;51.332;6.610;2023-03-15T09:38:23;101672.66;;;12.92;46.20
4705;BME280;2366;51.332;6.610;2023-03-15T09:40:49;101670.00;;;12.60;47.43
4705;BME280;2366;51.332;6.610;2023-03-15T09:48:51;101688.31;;;18.31;37.11
4705;BME280;2366;51.332;6.610;2023-03-15T09:51:29;101670.97;;;18.01;35.08
4705;BME280;2366;51.332;6.610;2023-03-15T09:54:19;101666.81;;;16.39;39.50
4705;BME280;2366;51.332;6.610;2023-03-15T09:56:54;101670.66;;;14.75;39.64
4705;BME280;2366;51.332;6.610;2023-03-15T09:59:31;101674.41;;;13.55;44.21
4705;BME280;2366;51.332;6.610;2023-03-15T10:02:00;101674.47;;;14.43;41.35
4705;BME280;2366;51.332;6.610;2023-03-15T10:04:32;101669.19;;;16.94;37.21
4705;BME280;2366;51.332;6.610;2023-03-15T10:07:11;101679.63;;;16.34;37.05
4705;BME280;2366;51.332;6.610;2023-03-15T10:09:37;101674.75;;;13.79;40.65
4705;BME280;2366;51.332;6.610;2023-03-15T10:12:19;101677.38;;;12.22;45.26
4705;BME280;2366;51.332;6.610;2023-03-15T10:20:16;101677.13;;;12.76;46.65
4705;BME280;2366;51.332;6.610;2023-03-15T10:22:55;101684.88;;;13.12;44.68
4705;BME280;2366;51.332;6.610;2023-03-15T10:25:27;101684.75;;;13.45;45.15
4705;BME280;2366;51.332;6.610;2023-03-15T10:27:59;101691.09;;;13.89;44.04
4705;BME280;2366;51.332;6.610;2023-03-15T10:30:30;101690.34;;;14.15;43.95
4705;BME280;2366;51.332;6.610;2023-03-15T10:32:59;101695.59;;;13.72;44.14
4705;BME280;2366;51.332;6.610;2023-03-15T10:35:26;101692.06;;;13.58;44.34
4705;BME280;2366;51.332;6.610;2023-03-15T10:37:51;101694.66;;;13.43;43.57
4705;BME280;2366;51.332;6.610;2023-03-15T10:40:46;101698.94;;;12.82;43.89
4705;BME280;2366;51.332;6.610;2023-03-15T10:43:23;101693.34;;;12.22;46.10
4705;BME280;2366;51.332;6.610;2023-03-15T10:48:28;101696.84;;;11.70;43.29
4705;BME280;2366;51.332;6.610;2023-03-15T10:50:54;101696.25;;;11.82;43.60
4705;BME280;2366;51.332;6.610;2023-03-15T10:53:21;101700.84;;;12.13;43.90
4705;BME280;2366;51.332;6.610;2023-03-15T10:55:47;101689.97;;;12.18;42.09
4705;BME280;2366;51.332;6.610;2023-03-15T10:58:41;101696.19;;;11.30;43.51
4705;BME280;2366;51.332;6.610;2023-03-15T11:01:22;101703.66;;;11.22;45.15
4705;BME280;2366;51.332;6.610;2023-03-15T11:06:26;101704.81;;;11.70;45.71
4705;BME280;2366;51.332;6.610;2023-03-15T11:08:53;101715.16;;;11.94;46.64
4705;BME280;2366;51.332;6.610;2023-03-15T11:12:09;101709.84;;;11.94;44.00
4705;BME280;2366;51.332;6.610;2023-03-15T11:14:39;101707.66;;;12.52;42.08
4705;BME280;2366;51.332;6.610;2023-03-15T11:17:08;101715.50;;;13.03;43.17
4705;BME280;2366;51.332;6.610;2023-03-15T11:19:40;101720.59;;;13.24;41.89
4705;BME280;2366;51.332;6.610;2023-03-15T11:22:09;101719.75;;;13.23;40.88
4705;BME280;2366;51.332;6.610;2023-03-15T11:24:36;101720.34;;;13.12;40.14
4705;BME280;2366;51.332;6.610;2023-03-15T11:27:05;101724.34;;;12.88;39.06
4705;BME280;2366;51.332;6.610;2023-03-15T11:29:36;101729.97;;;13.31;38.04
4705;BME280;2366;51.332;6.610;2023-03-15T11:32:12;101738.38;;;13.85;38.96
4705;BME280;2366;51.332;6.610;2023-03-15T11:34:55;101735.22;;;14.09;36.50
4705;BME280;2366;51.332;6.610;2023-03-15T11:37:27;101733.41;;;14.24;37.24
4705;BME280;2366;51.332;6.610;2023-03-15T11:40:30;101730.38;;;14.30;36.70
4705;BME280;2366;51.332;6.610;2023-03-15T11:43:08;101734.28;;;14.10;34.90
4705;BME280;2366;51.332;6.610;2023-03-15T11:45:56;101726.59;;;12.95;35.37
4705;BME280;2366;51.332;6.610;2023-03-15T11:48:32;101737.53;;;13.39;38.00
4705;BME280;2366;51.332;6.610;2023-03-15T11:51:01;101743.41;;;14.06;38.16
4705;BME280;2366;51.332;6.610;2023-03-15T11:53:33;101743.13;;;13.80;34.57
4705;BME280;2366;51.332;6.610;2023-03-15T12:01:29;101737.53;;;13.39;36.18
4705;BME280;2366;51.332;6.610;2023-03-15T12:06:52;101732.09;;;13.24;35.31
4705;BME280;2366;51.332;6.610;2023-03-15T12:09:39;101729.03;;;13.32;35.47
4705;BME280;2366;51.332;6.610;2023-03-15T12:17:50;101730.75;;;13.33;35.07
4705;BME280;2366;51.332;6.610;2023-03-15T12:22:52;101727.22;;;13.32;35.18
4705;BME280;2366;51.332;6.610;2023-03-15T12:25:31;101726.28;;;13.49;36.25
4705;BME280;2366;51.332;6.610;2023-03-15T12:28:04;101724.00;;;13.88;35.91
4705;BME280;2366;51.332;6.610;2023-03-15T12:30:39;101720.44;;;14.17;34.55
4705;BME280;2366;51.332;6.610;2023-03-15T12:33:17;101727.16;;;14.39;34.26
4705;BME280;2366;51.332;6.610;2023-03-15T12:35:43;101728.56;;;14.30;33.84
4705;BME280;2366;51.332;6.610;2023-03-15T12:38:14;101725.34;;;14.25;33.91
4705;BME280;2366;51.332;6.610;2023-03-15T12:46:01;101721.59;;;13.99;31.94
4705;BME280;2366;51.332;6.610;2023-03-15T12:48:27;101702.34;;;14.08;32.29
4705;BME280;2366;51.332;6.610;2023-03-15T12:50:55;101715.06;;;14.33;33.79
4705;BME280;2366;51.332;6.610;2023-03-15T12:56:40;101706.47;;;14.14;32.90
4705;BME280;2366;51.332;6.610;2023-03-15T12:59:18;101711.81;;;14.28;32.17
4705;BME280;2366;51.332;6.610;2023-03-15T13:01:45;101717.81;;;14.46;32.71
4705;BME280;2366;51.332;6.610;2023-03-15T13:04:11;101714.69;;;14.54;33.49
4705;BME280;2366;51.332;6.610;2023-03-15T13:14:54;101716.94;;;14.17;33.74
4705;BME280;2366;51.332;6.610;2023-03-15T13:17:42;101713.69;;;14.26;31.97
4705;BME280;2366;51.332;6.610;2023-03-15T13:23:02;101717.34;;;14.39;32.99
4705;BME280;2366;51.332;6.610;2023-03-15T13:26:00;101719.09;;;14.69;31.12
4705;BME280;2366;51.332;6.610;2023-03-15T13:28:37;101718.53;;;14.64;31.56
4705;BME280;2366;51.332;6.610;2023-03-15T13:33:38;101711.81;;;14.43;30.64
4705;BME280;2366;51.332;6.610;2023-03-15T13:38:44;101717.25;;;14.70;31.03
4705;BME280;2366;51.332;6.610;2023-03-15T13:41:27;101721.28;;;14.77;29.69
4705;BME280;2366;51.332;6.610;2023-03-15T13:43:59;101721.38;;;14.61;29.84
4705;BME280;2366;51.332;6.610;2023-03-15T13:46:28;101717.94;;;14.59;30.83
4705;BME280;2366;51.332;6.610;2023-03-15T13:48:54;101722.44;;;14.58;31.19
4705;BME280;2366;51.332;6.610;2023-03-15T13:51:25;101717.50;;;14.22;29.56
4705;BME280;2366;51.332;6.610;2023-03-15T13:53:54;101706.56;;;14.12;29.02
4705;BME280;2366;51.332;6.610;2023-03-15T13:56:27;101715.78;;;13.46;31.68
4705;BME280;2366;51.332;6.610;2023-03-15T13:58:55;101721.47;;;14.01;32.22
4705;BME280;2366;51.332;6.610;2023-03-15T14:01:21;101718.09;;;14.42;31.54
4705;BME280;2366;51.332;6.610;2023-03-15T14:03:53;101724.41;;;14.55;30.51
4705;BME280;2366;51.332;6.610;2023-03-15T14:06:22;101720.63;;;14.73;29.84
4705;BME280;2366;51.332;6.610;2023-03-15T14:08:51;101720.22;;;14.65;30.77
4705;BME280;2366;51.332;6.610;2023-03-15T14:13:52;101724.22;;;14.72;30.64
4705;BME280;2366;51.332;6.610;2023-03-15T14:16:55;101719.38;;;14.79;31.02
4705;BME280;2366;51.332;6.610;2023-03-15T14:19:26;101719.25;;;14.81;29.99
4705;BME280;2366;51.332;6.610;2023-03-15T14:22:00;101726.63;;;14.77;28.26
4705;BME280;2366;51.332;6.610;2023-03-15T14:26:59;101720.66;;;14.14;26.27
4705;BME280;2366;51.332;6.610;2023-03-15T14:29:35;101725.88;;;14.16;29.75
4705;BME280;2366;51.332;6.610;2023-03-15T14:32:07;101730.84;;;14.22;29.39